Time;durP1;ratioP1;P1;durP2;ratioP2;P2;SDS_P1;SDS_P2;PMS_P1;PMS_P2;Temp;Humidity;BMP_temperature;BMP_pressure;BME280_temperature;BME280_humidity;BME280_pressure;Samples;Min_cycle;Max_cycle;Signal;HPM_P1;HPM_P2
2022/09/26 00:00:03;;;;;;;;;;;13.60;97.50;;;;;;5025776;28;19940;-78
2022/09/26 00:02:30;;;;;;;;;;;13.60;97.50;;;;;;5023592;28;19967;-77
2022/09/26 00:04:57;;;;;;;;;;;13.60;97.50;;;;;;5024755;28;19929;-80
2022/09/26 00:07:25;;;;;;;;;;;13.50;97.40;;;;;;5024987;28;19929;-75
2022/09/26 00:09:54;;;;;;;;;;;13.50;97.50;;;;;;5023260;28;19942;-79
2022/09/26 00:12:20;;;;;;;;;;;13.50;97.50;;;;;;5023610;28;19964;-80
2022/09/26 00:14:47;;;;;;;;;;;13.50;97.50;;;;;;5024943;28;19929;-79
2022/09/26 00:17:14;;;;;;;;;;;13.50;97.50;;;;;;5022954;28;19933;-79
2022/09/26 00:19:40;;;;;;;;;;;13.50;97.50;;;;;;5021142;28;19929;-79
2022/09/26 00:22:07;;;;;;;;;;;13.50;97.50;;;;;;5026225;28;19936;-80
2022/09/26 00:24:35;;;;;;;;;;;13.40;97.50;;;;;;5026114;28;19932;-79
2022/09/26 00:27:01;;;;;;;;;;;13.40;97.50;;;;;;5015410;28;19933;-80
2022/09/26 00:29:28;;;;;;;;;;;13.40;97.50;;;;;;5023898;28;19936;-79
2022/09/26 00:31:55;;;;;;;;;;;13.40;97.60;;;;;;5018219;28;20012;-79
2022/09/26 00:34:21;;;;;;;;;;;13.40;97.60;;;;;;5027230;28;19925;-78
2022/09/26 00:36:48;;;;;;;;;;;13.40;97.60;;;;;;5024084;28;19921;-79
2022/09/26 00:39:15;;;;;;;;;;;13.30;97.60;;;;;;5027687;28;20009;-78
2022/09/26 00:41:44;;;;;;;;;;;13.30;97.80;;;;;;5022882;28;19929;-77
2022/09/26 00:44:29;;;;;;;;;;;13.30;97.50;;;;;;5029756;28;19925;-80
2022/09/26 00:46:56;;;;;;;;;;;13.30;97.50;;;;;;5027815;28;19932;-78
2022/09/26 00:49:24;;;;;;;;;;;13.20;97.40;;;;;;5026926;28;19925;-80
2022/09/26 00:51:52;;;;;;;;;;;13.20;97.50;;;;;;5021096;28;19925;-77
2022/09/26 00:54:19;;;;;;;;;;;13.20;97.50;;;;;;5033830;28;19921;-78
2022/09/26 00:56:48;;;;;;;;;;;13.20;97.50;;;;;;5026722;28;19940;-78
2022/09/26 00:59:17;;;;;;;;;;;13.20;97.50;;;;;;5028061;28;19929;-78
2022/09/26 01:01:44;;;;;;;;;;;13.10;97.50;;;;;;5027001;28;19925;-79
2022/09/26 01:04:12;;;;;;;;;;;13.10;97.50;;;;;;5026009;28;19929;-78
2022/09/26 01:06:38;;;;;;;;;;;13.10;97.60;;;;;;5026761;28;19929;-78
2022/09/26 01:09:07;;;;;;;;;;;13.10;97.60;;;;;;5028051;28;19929;-80
2022/09/26 01:11:35;;;;;;;;;;;13.10;97.60;;;;;;5023235;28;19936;-77
2022/09/26 01:14:03;;;;;;;;;;;13.10;97.60;;;;;;5030995;28;20178;-79
2022/09/26 01:16:32;;;;;;;;;;;13.00;97.60;;;;;;5028317;28;20373;-80
2022/09/26 01:18:59;;;;;;;;;;;13.10;97.60;;;;;;5030171;28;19933;-80
2022/09/26 01:21:36;;;;;;;;;;;13.00;97.60;;;;;;5025896;28;19929;-77
2022/09/26 01:24:22;;;;;;;;;;;13.00;97.60;;;;;;5027419;28;20367;-78
2022/09/26 01:27:10;;;;;;;;;;;13.10;97.70;;;;;;5022141;28;19925;-78
2022/09/26 01:29:46;;;;;;;;;;;13.00;97.60;;;;;;5019375;28;19984;-81
2022/09/26 01:35:09;;;;;;;;;;;13.00;97.60;;;;;;5026317;28;19936;-78
2022/09/26 01:37:40;;;;;;;;;;;12.90;97.60;;;;;;5018584;28;20184;-78
2022/09/26 01:40:09;;;;;;;;;;;12.90;97.70;;;;;;5019481;28;19975;-80
2022/09/26 01:42:39;;;;;;;;;;;13.00;97.70;;;;;;5027547;28;19983;-78
2022/09/26 01:45:08;;;;;;;;;;;12.90;97.70;;;;;;5025884;28;19929;-77
2022/09/26 01:47:40;;;;;;;;;;;12.90;97.70;;;;;;5024667;28;19936;-79
2022/09/26 01:50:12;;;;;;;;;;;12.90;97.80;;;;;;5021894;28;19933;-79
2022/09/26 01:52:43;;;;;;;;;;;12.90;97.80;;;;;;5023626;28;19929;-79
2022/09/26 01:55:12;;;;;;;;;;;12.90;97.80;;;;;;5027742;28;19932;-78
2022/09/26 01:57:41;;;;;;;;;;;12.90;97.80;;;;;;5028880;28;19945;-78
2022/09/26 02:00:11;;;;;;;;;;;12.90;97.90;;;;;;5026989;28;19979;-80
2022/09/26 02:02:41;;;;;;;;;;;12.90;97.90;;;;;;5007543;28;20763;-79
2022/09/26 02:05:11;;;;;;;;;;;12.80;97.80;;;;;;5008282;28;19929;-77
2022/09/26 02:07:39;;;;;;;;;;;12.80;97.80;;;;;;5006501;28;19933;-77
2022/09/26 02:10:09;;;;;;;;;;;12.80;97.80;;;;;;5007482;28;19925;-80
2022/09/26 02:12:38;;;;;;;;;;;12.80;97.90;;;;;;5008531;28;19930;-78
2022/09/26 02:15:06;;;;;;;;;;;12.80;97.90;;;;;;5010487;28;19933;-78
2022/09/26 02:17:35;;;;;;;;;;;12.80;97.90;;;;;;5028825;28;19967;-79
2022/09/26 02:20:06;;;;;;;;;;;12.80;97.90;;;;;;5026426;28;19932;-79
2022/09/26 02:22:34;;;;;;;;;;;12.80;97.90;;;;;;5025317;28;19932;-81
2022/09/26 02:25:00;;;;;;;;;;;12.80;97.80;;;;;;5022114;28;19929;-79
2022/09/26 02:27:27;;;;;;;;;;;12.80;97.80;;;;;;5020387;28;19984;-80
2022/09/26 02:29:54;;;;;;;;;;;12.70;97.80;;;;;;5025250;28;19936;-80
2022/09/26 02:32:24;;;;;;;;;;;12.70;97.80;;;;;;5024735;28;19929;-78
2022/09/26 02:34:51;;;;;;;;;;;12.70;97.80;;;;;;5025890;28;19988;-80
2022/09/26 02:37:20;;;;;;;;;;;12.70;97.80;;;;;;5025311;28;19944;-81
2022/09/26 02:39:50;;;;;;;;;;;12.70;97.80;;;;;;5026214;28;20020;-79
2022/09/26 02:42:20;;;;;;;;;;;12.70;97.70;;;;;;5013804;28;19969;-81
2022/09/26 02:44:52;;;;;;;;;;;12.70;97.80;;;;;;5023873;28;19941;-80
2022/09/26 02:47:33;;;;;;;;;;;12.70;97.80;;;;;;5020869;28;20413;-79
2022/09/26 02:50:09;;;;;;;;;;;12.60;97.70;;;;;;5023789;28;19929;-80
2022/09/26 02:52:42;;;;;;;;;;;12.70;97.60;;;;;;5026214;28;20087;-79
2022/09/26 02:55:12;;;;;;;;;;;12.60;97.50;;;;;;5024713;28;19928;-79
2022/09/26 02:57:43;;;;;;;;;;;12.60;97.40;;;;;;5023496;28;20040;-79
2022/09/26 03:00:12;;;;;;;;;;;12.50;97.40;;;;;;5022524;28;19933;-77
2022/09/26 03:02:40;;;;;;;;;;;12.60;97.50;;;;;;5018552;28;19951;-78
2022/09/26 03:05:09;;;;;;;;;;;12.60;97.50;;;;;;5021763;28;19929;-79
2022/09/26 03:07:39;;;;;;;;;;;12.60;97.50;;;;;;5024950;28;19929;-80
2022/09/26 03:10:07;;;;;;;;;;;12.60;97.50;;;;;;5024812;28;19951;-78
2022/09/26 03:12:34;;;;;;;;;;;12.60;97.40;;;;;;5024960;28;19933;-80
2022/09/26 03:15:02;;;;;;;;;;;12.50;97.70;;;;;;5025862;28;20524;-79
2022/09/26 03:17:30;;;;;;;;;;;12.50;97.40;;;;;;5004003;28;19934;-80
2022/09/26 03:19:58;;;;;;;;;;;12.50;97.30;;;;;;5003103;28;19933;-78
2022/09/26 03:22:25;;;;;;;;;;;12.50;97.30;;;;;;5003800;28;20340;-79
2022/09/26 03:24:53;;;;;;;;;;;12.50;97.30;;;;;;5007273;28;19934;-78
2022/09/26 03:27:20;;;;;;;;;;;12.50;97.20;;;;;;5000845;28;20047;-78
2022/09/26 03:29:46;;;;;;;;;;;12.50;97.20;;;;;;5003167;28;19929;-79
2022/09/26 03:32:13;;;;;;;;;;;12.50;97.20;;;;;;5022547;28;20012;-80
2022/09/26 03:34:39;;;;;;;;;;;12.40;97.20;;;;;;5023555;28;20376;-79
2022/09/26 03:37:06;;;;;;;;;;;12.40;97.20;;;;;;5021902;28;19937;-78
2022/09/26 03:39:33;;;;;;;;;;;12.40;97.20;;;;;;5024081;28;19936;-80
2022/09/26 03:42:01;;;;;;;;;;;12.40;97.20;;;;;;5019804;28;19936;-79
2022/09/26 03:44:28;;;;;;;;;;;12.40;97.20;;;;;;5017505;28;19945;-81
2022/09/26 03:46:54;;;;;;;;;;;12.40;97.30;;;;;;5024131;28;20452;-78
2022/09/26 03:49:21;;;;;;;;;;;12.40;97.30;;;;;;5023530;28;20741;-80
2022/09/26 03:51:48;;;;;;;;;;;12.40;97.30;;;;;;5021235;28;20389;-80
2022/09/26 03:54:15;;;;;;;;;;;12.30;97.30;;;;;;5029292;28;19982;-79
2022/09/26 03:56:41;;;;;;;;;;;12.40;97.40;;;;;;5023719;28;19929;-78
2022/09/26 03:59:10;;;;;;;;;;;12.30;97.40;;;;;;5022615;28;19929;-78
2022/09/26 04:01:36;;;;;;;;;;;12.30;97.50;;;;;;5023914;28;19929;-79
2022/09/26 04:04:03;;;;;;;;;;;12.30;97.50;;;;;;5025411;28;19928;-82
2022/09/26 04:06:30;;;;;;;;;;;12.30;97.50;;;;;;5023844;28;19986;-79
2022/09/26 04:08:57;;;;;;;;;;;12.30;97.50;;;;;;5021660;28;19937;-78
2022/09/26 04:11:23;;;;;;;;;;;12.30;97.50;;;;;;5028399;28;20436;-78
2022/09/26 04:13:50;;;;;;;;;;;12.20;97.50;;;;;;5028697;28;19929;-80
2022/09/26 04:16:19;;;;;;;;;;;12.20;97.60;;;;;;5027388;28;19937;-78
2022/09/26 04:18:46;;;;;;;;;;;12.30;97.60;;;;;;5025696;28;20023;-81
2022/09/26 04:21:13;;;;;;;;;;;12.30;97.70;;;;;;5026326;28;20028;-79
2022/09/26 04:23:40;;;;;;;;;;;12.30;97.70;;;;;;5026272;28;20012;-79
2022/09/26 04:26:07;;;;;;;;;;;12.20;97.70;;;;;;5022718;28;20651;-77
2022/09/26 04:28:34;;;;;;;;;;;12.20;97.70;;;;;;5025477;28;19936;-79
2022/09/26 04:31:01;;;;;;;;;;;12.20;97.70;;;;;;5027391;28;19941;-81
2022/09/26 04:33:29;;;;;;;;;;;12.20;97.70;;;;;;5022017;28;20306;-78
2022/09/26 04:35:58;;;;;;;;;;;12.20;97.70;;;;;;5028187;28;19929;-80
2022/09/26 04:38:32;;;;;;;;;;;12.20;97.80;;;;;;5026027;28;20457;-78
2022/09/26 04:41:03;;;;;;;;;;;12.20;97.80;;;;;;5026632;28;19929;-80
2022/09/26 04:43:30;;;;;;;;;;;12.10;97.80;;;;;;5019325;28;20019;-78
2022/09/26 04:45:56;;;;;;;;;;;12.20;97.80;;;;;;5024443;28;19929;-77
2022/09/26 04:48:23;;;;;;;;;;;12.10;97.80;;;;;;5025533;28;19991;-78
2022/09/26 04:50:51;;;;;;;;;;;12.10;97.80;;;;;;5028404;28;20499;-78
2022/09/26 04:53:18;;;;;;;;;;;12.10;97.80;;;;;;5024607;28;20476;-79
2022/09/26 04:55:45;;;;;;;;;;;12.10;97.80;;;;;;5026256;28;19929;-80
2022/09/26 04:58:12;;;;;;;;;;;12.10;97.90;;;;;;5025972;28;19933;-79
2022/09/26 05:00:44;;;;;;;;;;;12.10;97.90;;;;;;5018863;28;20427;-81
2022/09/26 05:03:11;;;;;;;;;;;12.10;97.90;;;;;;5010707;28;19976;-78
2022/09/26 05:05:39;;;;;;;;;;;12.10;97.90;;;;;;5006711;28;19929;-79
2022/09/26 05:08:08;;;;;;;;;;;12.10;97.90;;;;;;5007501;28;19929;-77
2022/09/26 05:10:34;;;;;;;;;;;12.10;97.90;;;;;;5002247;28;19987;-78
2022/09/26 05:13:02;;;;;;;;;;;12.00;98.20;;;;;;5007194;28;19937;-79
2022/09/26 05:15:28;;;;;;;;;;;12.00;97.90;;;;;;5007216;28;20420;-79
2022/09/26 05:17:55;;;;;;;;;;;12.00;97.90;;;;;;5007365;28;20004;-78
2022/09/26 05:20:23;;;;;;;;;;;11.90;96.60;;;;;;5002128;28;20522;-79
2022/09/26 05:22:49;;;;;;;;;;;11.90;96.90;;;;;;5010478;28;19929;-80
2022/09/26 05:28:02;;;;;;;;;;;11.80;97.30;;;;;;5005373;28;21067;-80
2022/09/26 05:30:31;;;;;;;;;;;11.80;97.40;;;;;;5006272;28;19929;-78
2022/09/26 05:32:57;;;;;;;;;;;11.80;97.40;;;;;;4999708;28;19935;-78
2022/09/26 05:35:24;;;;;;;;;;;11.80;97.40;;;;;;5003987;28;19992;-78
2022/09/26 05:37:57;;;;;;;;;;;11.90;97.50;;;;;;5006924;28;19933;-76
2022/09/26 05:43:10;;;;;;;;;;;11.80;97.40;;;;;;5007052;28;20019;-79
2022/09/26 05:45:37;;;;;;;;;;;11.80;97.40;;;;;;5020555;28;19929;-78
2022/09/26 05:48:03;;;;;;;;;;;11.70;97.40;;;;;;5026492;28;20409;-80
2022/09/26 05:50:30;;;;;;;;;;;11.80;97.40;;;;;;5022703;28;19928;-79
2022/09/26 05:52:57;;;;;;;;;;;11.80;97.40;;;;;;5021268;28;19933;-77
2022/09/26 05:55:23;;;;;;;;;;;11.80;97.40;;;;;;5021573;28;19936;-80
2022/09/26 05:57:52;;;;;;;;;;;11.80;97.40;;;;;;5024847;28;19960;-78
2022/09/26 06:00:19;;;;;;;;;;;11.80;97.40;;;;;;5030820;28;20442;-78
2022/09/26 06:02:45;;;;;;;;;;;11.80;97.30;;;;;;5033719;28;19935;-77
2022/09/26 06:05:12;;;;;;;;;;;11.80;97.40;;;;;;5024873;28;19929;-79
2022/09/26 06:07:38;;;;;;;;;;;11.70;97.30;;;;;;5024402;28;19929;-79
2022/09/26 06:10:05;;;;;;;;;;;11.70;97.30;;;;;;5021801;28;19929;-78
2022/09/26 06:12:33;;;;;;;;;;;11.70;97.30;;;;;;5030063;28;19933;-79
2022/09/26 06:15:01;;;;;;;;;;;11.70;97.30;;;;;;5027022;28;19979;-78
2022/09/26 06:17:28;;;;;;;;;;;11.70;97.30;;;;;;5024222;28;19929;-78
2022/09/26 06:19:55;;;;;;;;;;;11.70;97.30;;;;;;5022190;28;19937;-78
2022/09/26 06:22:21;;;;;;;;;;;11.70;97.30;;;;;;5020558;28;19963;-79
2022/09/26 06:24:48;;;;;;;;;;;11.60;97.30;;;;;;5024895;28;19933;-79
2022/09/26 06:27:15;;;;;;;;;;;11.70;97.30;;;;;;5022323;28;19937;-77
2022/09/26 06:29:41;;;;;;;;;;;11.60;97.30;;;;;;5017590;28;20030;-76
2022/09/26 06:32:09;;;;;;;;;;;11.60;97.30;;;;;;5023396;28;19929;-79
2022/09/26 06:34:36;;;;;;;;;;;11.60;97.30;;;;;;5021988;28;20533;-79
2022/09/26 06:37:02;;;;;;;;;;;11.60;97.30;;;;;;5017362;28;20052;-80
2022/09/26 06:39:34;;;;;;;;;;;11.60;97.30;;;;;;5024370;28;20019;-80
2022/09/26 06:42:00;;;;;;;;;;;11.60;97.30;;;;;;5018909;28;19933;-69
2022/09/26 06:44:27;;;;;;;;;;;11.60;97.30;;;;;;5026110;28;19929;-71
2022/09/26 06:46:54;;;;;;;;;;;11.60;97.30;;;;;;5025344;28;20633;-70
2022/09/26 06:49:21;;;;;;;;;;;11.60;97.30;;;;;;5029184;28;19929;-69
2022/09/26 06:51:48;;;;;;;;;;;11.60;97.30;;;;;;5020888;28;19936;-69
2022/09/26 06:54:15;;;;;;;;;;;11.50;97.30;;;;;;5025531;28;19936;-69
2022/09/26 06:56:41;;;;;;;;;;;11.50;97.30;;;;;;5023464;28;19929;-70
2022/09/26 06:59:08;;;;;;;;;;;11.50;97.30;;;;;;5027253;28;19929;-71
2022/09/26 07:01:34;;;;;;;;;;;11.50;97.30;;;;;;5028467;28;19928;-69
2022/09/26 07:04:01;;;;;;;;;;;11.50;97.30;;;;;;5021362;28;19995;-69
2022/09/26 07:06:29;;;;;;;;;;;11.50;97.30;;;;;;5023168;28;19940;-70
2022/09/26 07:08:56;;;;;;;;;;;11.50;97.30;;;;;;5023785;28;19933;-68
2022/09/26 07:11:23;;;;;;;;;;;11.50;97.30;;;;;;5028084;28;19979;-70
2022/09/26 07:13:51;;;;;;;;;;;11.50;97.30;;;;;;5025003;28;20423;-69
2022/09/26 07:16:18;;;;;;;;;;;11.50;97.40;;;;;;5017715;28;19948;-68
2022/09/26 07:18:45;;;;;;;;;;;11.50;97.40;;;;;;5020730;28;20335;-69
2022/09/26 07:21:12;;;;;;;;;;;11.50;97.40;;;;;;5018373;28;20424;-70
2022/09/26 07:23:39;;;;;;;;;;;11.50;97.40;;;;;;5014242;28;19926;-70
2022/09/26 07:26:06;;;;;;;;;;;11.50;97.40;;;;;;5018531;28;19929;-70
2022/09/26 07:28:33;;;;;;;;;;;11.50;97.40;;;;;;5013049;28;19929;-69
2022/09/26 07:31:00;;;;;;;;;;;11.50;97.30;;;;;;5016460;28;20401;-71
2022/09/26 07:33:26;;;;;;;;;;;11.50;97.30;;;;;;5022157;28;20316;-69
2022/09/26 07:35:53;;;;;;;;;;;11.50;97.40;;;;;;5021755;28;20011;-69
2022/09/26 07:38:20;;;;;;;;;;;11.50;97.30;;;;;;5023828;28;19944;-71
2022/09/26 07:40:52;;;;;;;;;;;11.40;97.30;;;;;;5020903;28;19929;-69
2022/09/26 07:43:19;;;;;;;;;;;11.40;97.30;;;;;;5020376;28;19933;-68
2022/09/26 07:51:14;;;;;;;;;;;11.50;97.30;;;;;;5023149;28;19932;-70
2022/09/26 07:53:40;;;;;;;;;;;11.50;97.20;;;;;;5028619;28;19963;-69
2022/09/26 07:56:10;;;;;;;;;;;11.50;97.20;;;;;;5027115;28;19936;-70
2022/09/26 07:58:38;;;;;;;;;;;11.50;97.20;;;;;;5021674;28;19960;-70
2022/09/26 08:01:04;;;;;;;;;;;11.50;97.20;;;;;;5015123;28;20317;-70
2022/09/26 08:03:31;;;;;;;;;;;11.50;97.20;;;;;;5008178;28;19929;-71
2022/09/26 08:05:59;;;;;;;;;;;11.60;97.20;;;;;;5008668;28;20412;-70
2022/09/26 08:08:25;;;;;;;;;;;11.60;97.20;;;;;;5006887;28;19930;-77
2022/09/26 08:10:52;;;;;;;;;;;11.50;97.20;;;;;;5005685;28;19934;-79
2022/09/26 08:13:20;;;;;;;;;;;11.60;97.20;;;;;;5008374;28;20401;-77
2022/09/26 08:15:46;;;;;;;;;;;11.60;97.10;;;;;;5016479;28;19929;-77
2022/09/26 08:18:13;;;;;;;;;;;11.70;97.10;;;;;;5023633;28;20332;-78
2022/09/26 08:20:39;;;;;;;;;;;11.70;97.00;;;;;;5028351;28;19971;-78
2022/09/26 08:23:06;;;;;;;;;;;11.70;97.00;;;;;;5030518;28;19929;-78
2022/09/26 08:25:33;;;;;;;;;;;11.80;96.90;;;;;;5029773;28;20047;-78
2022/09/26 08:27:59;;;;;;;;;;;11.80;96.80;;;;;;5024450;28;19987;-78
2022/09/26 08:30:30;;;;;;;;;;;11.80;96.80;;;;;;5026678;28;19940;-77
2022/09/26 08:32:57;;;;;;;;;;;11.90;96.70;;;;;;5027772;28;20725;-76
2022/09/26 08:35:25;;;;;;;;;;;11.90;96.60;;;;;;5027679;28;19969;-79
2022/09/26 08:37:51;;;;;;;;;;;11.90;96.60;;;;;;5016923;28;20012;-78
2022/09/26 08:40:20;;;;;;;;;;;12.00;96.40;;;;;;5026263;28;19929;-77
2022/09/26 08:42:55;;;;;;;;;;;12.00;96.30;;;;;;5019164;28;19951;-77
2022/09/26 08:48:18;;;;;;;;;;;12.20;96.30;;;;;;5025435;28;19982;-79
2022/09/26 08:50:47;;;;;;;;;;;12.10;96.10;;;;;;5028766;28;19933;-77
2022/09/26 08:53:15;;;;;;;;;;;12.30;96.10;;;;;;5026265;28;19929;-78
2022/09/26 08:55:44;;;;;;;;;;;12.30;96.00;;;;;;5027569;28;20319;-77
2022/09/26 08:58:15;;;;;;;;;;;12.30;95.90;;;;;;5026298;28;19929;-77
2022/09/26 09:00:44;;;;;;;;;;;12.40;95.90;;;;;;5025915;28;20041;-77
2022/09/26 09:03:15;;;;;;;;;;;12.50;95.80;;;;;;5022878;28;20546;-76
2022/09/26 09:05:43;;;;;;;;;;;12.50;95.70;;;;;;5021804;28;20003;-77
2022/09/26 09:08:12;;;;;;;;;;;12.50;95.60;;;;;;5023948;28;19929;-78
2022/09/26 09:10:45;;;;;;;;;;;12.60;95.50;;;;;;5023503;28;19937;-76
2022/09/26 09:13:23;;;;;;;;;;;12.70;95.40;;;;;;5019838;28;19939;-76
2022/09/26 09:16:01;;;;;;;;;;;12.70;95.20;;;;;;5019940;28;19940;-77
2022/09/26 09:18:34;;;;;;;;;;;12.80;95.10;;;;;;5025264;28;19936;-77
2022/09/26 09:21:05;;;;;;;;;;;12.90;94.90;;;;;;5025694;28;20118;-77
2022/09/26 09:23:37;;;;;;;;;;;13.00;94.60;;;;;;5033233;28;19932;-76
2022/09/26 09:26:10;;;;;;;;;;;13.00;94.50;;;;;;5016366;28;19936;-77
2022/09/26 09:28:46;;;;;;;;;;;13.10;94.40;;;;;;5023829;28;20016;-77
2022/09/26 09:31:15;;;;;;;;;;;13.10;94.30;;;;;;5021201;28;19979;-78
2022/09/26 09:33:44;;;;;;;;;;;13.20;94.00;;;;;;5020818;28;19933;-77
2022/09/26 09:36:12;;;;;;;;;;;13.30;94.00;;;;;;5021771;28;19976;-75
2022/09/26 09:38:40;;;;;;;;;;;13.30;93.90;;;;;;5024874;28;19964;-77
2022/09/26 09:41:08;;;;;;;;;;;13.40;93.80;;;;;;5022712;28;19971;-77
2022/09/26 09:43:37;;;;;;;;;;;13.40;93.50;;;;;;5025731;28;19933;-76
2022/09/26 09:46:05;;;;;;;;;;;13.50;93.50;;;;;;5024798;28;19930;-77
2022/09/26 09:48:33;;;;;;;;;;;13.60;93.20;;;;;;5019198;28;19943;-77
2022/09/26 09:51:09;;;;;;;;;;;13.60;93.00;;;;;;5018404;28;19936;-77
2022/09/26 09:53:50;;;;;;;;;;;13.60;92.90;;;;;;5028689;28;19933;-77
2022/09/26 09:56:19;;;;;;;;;;;13.70;93.00;;;;;;4982353;28;19929;-77
2022/09/26 09:58:53;;;;;;;;;;;13.70;92.90;;;;;;5032122;28;19941;-76
2022/09/26 10:01:24;;;;;;;;;;;13.80;92.60;;;;;;5016144;28;20320;-76
2022/09/26 10:03:55;;;;;;;;;;;13.80;92.70;;;;;;5022749;28;19939;-78
2022/09/26 10:06:22;;;;;;;;;;;13.80;92.70;;;;;;5027937;28;19979;-77
2022/09/26 10:08:49;;;;;;;;;;;13.80;92.80;;;;;;5024243;28;20059;-78
2022/09/26 10:11:23;;;;;;;;;;;13.80;92.90;;;;;;5023610;28;19929;-78
2022/09/26 10:13:52;;;;;;;;;;;13.90;92.90;;;;;;5026031;28;19936;-77
2022/09/26 10:16:19;;;;;;;;;;;13.90;92.50;;;;;;5019417;28;19929;-75
2022/09/26 10:18:54;;;;;;;;;;;13.90;92.30;;;;;;5023405;28;19929;-76
2022/09/26 10:21:21;;;;;;;;;;;13.90;92.30;;;;;;5023732;28;19929;-77
2022/09/26 10:23:49;;;;;;;;;;;14.00;92.50;;;;;;5021112;28;19929;-77
2022/09/26 10:26:16;;;;;;;;;;;14.00;92.50;;;;;;5013795;28;19936;-77
2022/09/26 10:28:44;;;;;;;;;;;14.10;92.20;;;;;;5022685;28;20004;-78
2022/09/26 10:31:11;;;;;;;;;;;14.10;92.30;;;;;;5013063;28;20436;-76
2022/09/26 10:33:38;;;;;;;;;;;14.10;92.30;;;;;;5021780;28;19934;-78
2022/09/26 10:36:11;;;;;;;;;;;14.10;92.10;;;;;;5019607;28;19929;-78
2022/09/26 10:40:43;;;;;;;;;;;14.10;92.20;;;;;;5023840;28;19959;-78
2022/09/26 10:41:37;;;;;;;;;;;14.20;92.20;;;;;;5017912;28;19933;-77
2022/09/26 10:44:06;;;;;;;;;;;14.10;92.20;;;;;;5026797;28;20014;-77
2022/09/26 10:46:33;;;;;;;;;;;14.10;92.30;;;;;;5023091;28;19925;-77
2022/09/26 10:49:01;;;;;;;;;;;14.20;91.90;;;;;;5018834;28;19929;-75
2022/09/26 10:51:30;;;;;;;;;;;14.20;92.00;;;;;;5026577;28;19925;-78
2022/09/26 10:54:02;;;;;;;;;;;14.20;92.10;;;;;;5022597;28;19967;-77
2022/09/26 10:56:30;;;;;;;;;;;14.20;92.30;;;;;;5026653;28;19933;-78
2022/09/26 10:58:58;;;;;;;;;;;14.20;92.50;;;;;;5019385;28;20542;-77
2022/09/26 11:01:28;;;;;;;;;;;14.20;92.60;;;;;;5028074;28;19929;-75
2022/09/26 11:03:58;;;;;;;;;;;14.20;92.70;;;;;;5021721;28;20650;-76
2022/09/26 11:06:26;;;;;;;;;;;14.20;93.10;;;;;;5021423;28;19929;-76
2022/09/26 11:08:57;;;;;;;;;;;14.20;93.00;;;;;;5021958;28;19940;-76
2022/09/26 11:11:25;;;;;;;;;;;14.20;93.10;;;;;;5018909;28;19972;-77
2022/09/26 11:14:02;;;;;;;;;;;14.20;93.10;;;;;;5024029;28;20042;-76
2022/09/26 11:16:28;;;;;;;;;;;14.30;93.50;;;;;;5023473;28;19929;-76
2022/09/26 11:18:57;;;;;;;;;;;14.20;93.20;;;;;;5029135;28;19937;-74
2022/09/26 11:21:28;;;;;;;;;;;14.30;93.40;;;;;;5022705;28;20290;-77
2022/09/26 11:24:01;;;;;;;;;;;14.30;93.40;;;;;;5016898;28;19940;-75
2022/09/26 11:26:33;;;;;;;;;;;14.30;93.30;;;;;;5024203;28;19929;-75
2022/09/26 11:29:04;;;;;;;;;;;14.30;93.40;;;;;;5016704;28;19963;-74
2022/09/26 11:31:35;;;;;;;;;;;14.40;93.40;;;;;;5016375;28;20626;-74
2022/09/26 11:34:03;;;;;;;;;;;14.40;93.40;;;;;;5022316;28;19952;-75
2022/09/26 11:36:44;;;;;;;;;;;14.40;93.40;;;;;;5020921;28;19933;-76
2022/09/26 11:39:17;;;;;;;;;;;14.40;93.60;;;;;;5017919;28;19937;-75
2022/09/26 11:41:52;;;;;;;;;;;14.40;93.60;;;;;;5017362;28;19928;-77
2022/09/26 11:44:34;;;;;;;;;;;14.50;93.60;;;;;;5022147;28;19929;-77
2022/09/26 11:47:06;;;;;;;;;;;14.50;93.60;;;;;;5019876;28;19925;-76
2022/09/26 11:49:48;;;;;;;;;;;14.50;93.40;;;;;;5020865;28;20007;-76
2022/09/26 11:52:23;;;;;;;;;;;14.50;93.40;;;;;;5019520;28;19952;-77
2022/09/26 11:54:57;;;;;;;;;;;14.50;93.30;;;;;;5016759;28;19929;-76
2022/09/26 11:57:34;;;;;;;;;;;14.60;93.40;;;;;;5014205;28;19936;-76
2022/09/26 12:00:08;;;;;;;;;;;14.60;93.30;;;;;;5022118;28;19929;-76
2022/09/26 12:02:40;;;;;;;;;;;14.60;93.30;;;;;;5016779;28;19936;-76
2022/09/26 12:05:25;;;;;;;;;;;14.50;93.30;;;;;;5024652;28;19925;-76
2022/09/26 12:07:55;;;;;;;;;;;14.50;93.30;;;;;;5019168;28;19988;-76
2022/09/26 12:10:27;;;;;;;;;;;14.50;93.30;;;;;;5017386;28;20035;-77
2022/09/26 12:13:02;;;;;;;;;;;14.50;93.30;;;;;;5019563;28;19929;-76
2022/09/26 12:15:31;;;;;;;;;;;14.50;93.20;;;;;;5023393;28;19929;-75
2022/09/26 12:18:04;;;;;;;;;;;14.50;93.30;;;;;;5021647;28;19983;-76
2022/09/26 12:20:34;;;;;;;;;;;14.40;93.30;;;;;;5020530;28;19929;-74
2022/09/26 12:23:07;;;;;;;;;;;14.40;93.40;;;;;;5021048;28;19929;-76
2022/09/26 12:25:47;;;;;;;;;;;14.40;93.50;;;;;;5021500;28;19929;-75
2022/09/26 12:28:22;;;;;;;;;;;14.40;93.40;;;;;;5021794;28;20036;-76
2022/09/26 12:30:53;;;;;;;;;;;14.30;93.30;;;;;;5024346;28;19933;-76
2022/09/26 12:33:27;;;;;;;;;;;14.30;93.40;;;;;;5014538;28;19980;-76
2022/09/26 12:35:57;;;;;;;;;;;14.30;93.30;;;;;;5019482;28;20116;-77
2022/09/26 12:38:38;;;;;;;;;;;14.30;93.40;;;;;;5034723;28;19929;-76
2022/09/26 12:41:13;;;;;;;;;;;14.30;93.30;;;;;;5017154;28;19936;-76
2022/09/26 12:43:52;;;;;;;;;;;14.10;93.10;;;;;;5025236;28;19935;-77
2022/09/26 12:46:29;;;;;;;;;;;14.20;92.90;;;;;;5025255;28;19933;-77
2022/09/26 12:49:02;;;;;;;;;;;14.20;93.00;;;;;;5020775;28;19944;-76
2022/09/26 12:51:36;;;;;;;;;;;14.10;93.10;;;;;;5029517;28;19940;-76
2022/09/26 12:54:17;;;;;;;;;;;14.10;93.10;;;;;;5026919;28;20377;-75
2022/09/26 12:56:52;;;;;;;;;;;14.00;93.10;;;;;;5027076;28;20567;-76
2022/09/26 12:59:24;;;;;;;;;;;14.00;93.10;;;;;;5024310;28;19939;-76
2022/09/26 13:01:59;;;;;;;;;;;14.00;93.10;;;;;;5028137;28;19929;-75
2022/09/26 13:04:35;;;;;;;;;;;14.00;93.00;;;;;;5025057;28;19939;-76
2022/09/26 13:07:08;;;;;;;;;;;13.90;93.10;;;;;;5029919;28;19951;-75
2022/09/26 13:09:43;;;;;;;;;;;13.90;93.20;;;;;;5025525;28;20348;-76
2022/09/26 13:12:17;;;;;;;;;;;13.80;93.20;;;;;;5023966;28;19998;-76
2022/09/26 13:15:00;;;;;;;;;;;13.90;93.20;;;;;;5025020;28;19995;-75
2022/09/26 13:17:29;;;;;;;;;;;13.80;93.20;;;;;;5021241;28;20596;-75
2022/09/26 13:19:59;;;;;;;;;;;13.80;93.20;;;;;;5024246;28;19929;-76
2022/09/26 13:22:33;;;;;;;;;;;13.70;93.30;;;;;;5025594;28;19936;-76
2022/09/26 13:25:02;;;;;;;;;;;13.80;93.50;;;;;;5026790;28;19937;-76
2022/09/26 13:27:35;;;;;;;;;;;13.70;93.50;;;;;;5020825;28;19936;-75
2022/09/26 13:30:03;;;;;;;;;;;13.70;93.80;;;;;;5022441;28;19940;-76
2022/09/26 13:32:35;;;;;;;;;;;13.70;93.90;;;;;;5027719;28;19937;-76
2022/09/26 13:35:05;;;;;;;;;;;13.70;94.00;;;;;;5016018;28;19929;-75
2022/09/26 13:37:42;;;;;;;;;;;13.70;94.00;;;;;;5022286;28;19983;-75
2022/09/26 13:40:20;;;;;;;;;;;13.70;94.10;;;;;;5024424;28;19989;-76
2022/09/26 13:42:50;;;;;;;;;;;13.70;94.30;;;;;;5025021;28;19925;-76
2022/09/26 13:45:21;;;;;;;;;;;13.70;94.40;;;;;;5015641;28;19929;-76
2022/09/26 13:47:51;;;;;;;;;;;13.70;94.50;;;;;;5024530;28;19933;-76
2022/09/26 13:50:23;;;;;;;;;;;13.70;94.60;;;;;;5024279;28;19944;-76
2022/09/26 13:52:59;;;;;;;;;;;13.80;94.70;;;;;;5022925;28;20036;-76
2022/09/26 13:55:28;;;;;;;;;;;13.80;94.70;;;;;;5022235;28;19935;-75
2022/09/26 13:58:05;;;;;;;;;;;13.80;94.70;;;;;;5019906;28;19933;-75
2022/09/26 14:00:40;;;;;;;;;;;13.80;94.70;;;;;;5021054;28;19935;-75
2022/09/26 14:03:28;;;;;;;;;;;13.80;94.70;;;;;;5016610;28;21244;-77
2022/09/26 14:06:06;;;;;;;;;;;13.90;94.60;;;;;;5018307;28;19933;-76
2022/09/26 14:11:29;;;;;;;;;;;13.90;94.70;;;;;;5019520;28;19936;-75
2022/09/26 14:14:15;;;;;;;;;;;13.90;94.70;;;;;;5020957;28;19966;-74
2022/09/26 14:16:43;;;;;;;;;;;13.90;94.70;;;;;;5021707;28;19929;-74
2022/09/26 14:19:11;;;;;;;;;;;13.90;94.60;;;;;;5020621;28;19933;-75
2022/09/26 14:21:39;;;;;;;;;;;13.90;94.70;;;;;;5019026;28;20286;-74
2022/09/26 14:24:26;;;;;;;;;;;13.90;94.70;;;;;;5023194;28;19933;-76
2022/09/26 14:26:57;;;;;;;;;;;13.90;94.70;;;;;;5019883;28;20272;-75
2022/09/26 14:29:30;;;;;;;;;;;13.90;94.70;;;;;;5022285;28;19998;-76
2022/09/26 14:32:00;;;;;;;;;;;13.90;94.70;;;;;;5021341;28;19995;-75
2022/09/26 14:34:29;;;;;;;;;;;13.90;94.70;;;;;;5019597;28;20356;-76
2022/09/26 14:36:57;;;;;;;;;;;14.00;94.70;;;;;;5015689;28;19933;-76
2022/09/26 14:39:27;;;;;;;;;;;14.00;94.70;;;;;;5019379;28;19929;-76
2022/09/26 14:41:54;;;;;;;;;;;14.00;94.60;;;;;;5019658;28;19933;-76
2022/09/26 14:44:22;;;;;;;;;;;14.00;94.50;;;;;;5020848;28;19983;-75
2022/09/26 14:46:52;;;;;;;;;;;14.00;94.40;;;;;;5028007;28;19939;-75
2022/09/26 14:49:22;;;;;;;;;;;14.00;94.30;;;;;;5020904;28;19933;-76